Time;durP1;ratioP1;P1;durP2;ratioP2;P2;SDS_P1;SDS_P2;PMS_P1;PMS_P2;Temp;Humidity;BMP_temperature;BMP_pressure;BME280_temperature;BME280_humidity;BME280_pressure;Samples;Min_cycle;Max_cycle;Signal;HPM_P1;HPM_P2
2022/04/02 00:02:01;;;;;;;698.47;647.90;;;0.90;99.90;;;;;;5034674;28;20492;-80
2022/04/02 00:04:29;;;;;;;715.73;663.23;;;0.80;99.90;;;;;;5034584;28;20467;-80
2022/04/02 00:06:56;;;;;;;698.23;646.63;;;0.60;99.90;;;;;;5034718;28;20452;-80
2022/04/02 00:09:23;;;;;;;680.40;631.90;;;0.60;99.90;;;;;;5033611;28;20459;-80
2022/04/02 00:11:49;;;;;;;679.27;629.27;;;0.60;99.90;;;;;;5034922;28;20472;-80
2022/04/02 00:14:17;;;;;;;684.77;635.33;;;0.90;99.90;;;;;;5035069;28;20456;-80
2022/04/02 00:16:44;;;;;;;687.53;637.53;;;0.80;99.90;;;;;;5034513;28;20498;-80
2022/04/02 00:19:11;;;;;;;687.13;638.67;;;0.90;99.90;;;;;;5031924;28;20452;-80
2022/04/02 00:21:39;;;;;;;662.53;618.40;;;0.50;99.90;;;;;;5033781;28;21026;-80
2022/04/02 00:24:06;;;;;;;665.83;620.13;;;0.80;99.90;;;;;;5033823;28;20514;-81
2022/04/02 00:26:34;;;;;;;677.73;629.23;;;0.80;99.90;;;;;;5034268;28;20452;-80
2022/04/02 00:29:00;;;;;;;676.90;628.47;;;0.80;99.90;;;;;;5033582;28;21019;-81
2022/04/02 00:31:29;;;;;;;673.63;624.93;;;0.60;99.90;;;;;;5034469;28;20449;-80
2022/04/02 00:33:56;;;;;;;681.83;632.37;;;1.00;99.90;;;;;;5034293;28;20896;-80
2022/04/02 00:36:23;;;;;;;671.17;625.47;;;1.00;99.90;;;;;;5034192;28;20459;-80
2022/04/02 00:38:51;;;;;;;687.33;637.97;;;0.50;99.90;;;;;;5033829;28;20500;-81
2022/04/02 00:41:18;;;;;;;671.50;624.17;;;1.00;99.90;;;;;;5033612;28;20485;-81
2022/04/02 00:43:57;;;;;;;670.70;624.00;;;0.90;99.90;;;;;;5034171;28;20858;-80
2022/04/02 00:46:24;;;;;;;661.87;618.87;;;0.50;99.90;;;;;;5034506;28;20460;-80
2022/04/02 00:48:51;;;;;;;657.70;615.93;;;0.80;99.90;;;;;;5033487;28;20460;-80
2022/04/02 00:51:18;;;;;;;651.93;609.63;;;0.90;99.90;;;;;;5034107;28;20870;-81
2022/04/02 00:53:47;;;;;;;649.37;609.17;;;0.70;99.90;;;;;;5034489;28;20479;-81
2022/04/02 00:56:15;;;;;;;678.90;633.30;;;0.60;99.90;;;;;;5034203;28;21067;-81
2022/04/02 00:58:42;;;;;;;656.07;615.00;;;0.80;99.90;;;;;;5033880;28;20453;-81
2022/04/02 01:01:09;;;;;;;648.70;607.70;;;0.60;99.90;;;;;;5034128;28;20863;-80
2022/04/02 01:03:37;;;;;;;631.07;591.83;;;0.50;99.90;;;;;;5033849;28;20472;-81
2022/04/02 01:06:04;;;;;;;641.47;601.30;;;0.70;99.90;;;;;;5034226;28;20456;-80
2022/04/02 01:08:31;;;;;;;635.87;595.50;;;0.70;99.90;;;;;;5033363;28;20460;-81
2022/04/02 01:10:58;;;;;;;629.50;591.67;;;0.70;99.90;;;;;;5034122;28;20452;-80
2022/04/02 01:13:27;;;;;;;628.90;591.13;;;0.50;99.90;;;;;;5033633;28;20477;-81
2022/04/02 01:15:56;;;;;;;605.27;571.33;;;0.70;99.90;;;;;;5033701;28;20914;-81
2022/04/02 01:18:23;;;;;;;624.53;587.33;;;0.50;99.90;;;;;;5033255;28;20460;-81
2022/04/02 01:20:50;;;;;;;592.80;560.70;;;0.80;99.90;;;;;;5033749;28;20470;-80
2022/04/02 01:23:18;;;;;;;572.30;542.00;;;0.70;99.90;;;;;;5033549;28;20564;-80
2022/04/02 01:25:45;;;;;;;592.63;560.00;;;0.50;99.90;;;;;;5034246;28;20448;-80
2022/04/02 01:28:12;;;;;;;598.58;564.83;;;0.60;99.90;;;;;;5033232;28;20456;-80
2022/04/02 01:30:39;;;;;;;599.97;566.37;;;0.90;99.90;;;;;;5033748;28;20583;-81
2022/04/02 01:33:05;;;;;;;600.97;567.53;;;0.60;99.90;;;;;;5033829;28;20494;-82
2022/04/02 01:35:34;;;;;;;632.67;599.47;;;0.60;99.90;;;;;;5033872;28;20456;-81
2022/04/02 01:38:01;;;;;;;561.17;533.37;;;0.80;99.90;;;;;;5033925;28;20948;-81
2022/04/02 01:40:29;;;;;;;573.17;544.27;;;0.50;99.90;;;;;;5032833;28;20463;-82
2022/04/02 01:42:56;;;;;;;585.30;554.23;;;0.80;99.90;;;;;;5032445;28;20493;-80
2022/04/02 01:45:22;;;;;;;584.93;555.33;;;0.60;99.90;;;;;;5034281;28;20453;-81
2022/04/02 01:47:51;;;;;;;576.10;547.20;;;0.80;99.90;;;;;;5033658;28;20462;-81
2022/04/02 01:50:18;;;;;;;587.93;557.90;;;0.60;99.90;;;;;;5041430;28;20866;-80
2022/04/02 01:52:45;;;;;;;549.57;522.97;;;0.70;99.90;;;;;;5045203;28;20472;-80
2022/04/02 01:55:12;;;;;;;563.85;535.03;;;0.60;99.90;;;;;;5046840;28;20467;-80
2022/04/02 01:57:40;;;;;;;584.57;554.47;;;0.60;99.90;;;;;;5046968;28;20193;-81
2022/04/02 02:00:09;;;;;;;564.50;536.37;;;0.60;99.90;;;;;;5040329;28;20455;-82
2022/04/02 02:02:36;;;;;;;560.57;532.77;;;0.80;99.90;;;;;;5037950;28;20491;-81
2022/04/02 02:05:03;;;;;;;575.53;547.47;;;0.80;99.90;;;;;;5038514;28;20949;-81
2022/04/02 02:07:30;;;;;;;569.13;541.23;;;0.80;99.90;;;;;;5038298;28;20460;-80
2022/04/02 02:09:58;;;;;;;530.10;505.65;;;0.60;99.90;;;;;;5037327;28;20460;-81
2022/04/02 02:12:25;;;;;;;523.37;500.43;;;0.80;99.90;;;;;;5037523;28;20214;-80
2022/04/02 02:14:53;;;;;;;534.97;510.53;;;0.60;99.90;;;;;;5037222;28;20452;-80
2022/04/02 02:17:20;;;;;;;513.23;491.33;;;0.70;99.90;;;;;;5037618;28;20460;-81
2022/04/02 02:19:47;;;;;;;519.83;497.17;;;0.70;99.90;;;;;;5036208;28;20459;-80
2022/04/02 02:22:13;;;;;;;487.93;468.23;;;0.70;99.90;;;;;;5036740;28;20484;-81
2022/04/02 02:24:40;;;;;;;549.37;523.47;;;0.60;99.90;;;;;;5037233;28;20452;-80
2022/04/02 02:27:08;;;;;;;501.67;480.13;;;0.70;99.90;;;;;;5036765;28;20462;-80
2022/04/02 02:29:35;;;;;;;517.42;494.88;;;0.50;99.90;;;;;;5036232;28;20459;-80
2022/04/02 02:32:04;;;;;;;499.97;478.27;;;0.50;99.90;;;;;;5036455;28;20221;-80
2022/04/02 02:37:16;;;;;;;564.03;537.63;;;0.60;99.90;;;;;;5036777;28;20439;-80
2022/04/02 02:39:43;;;;;;;536.83;512.17;;;0.60;99.90;;;;;;5036094;28;20487;-80
2022/04/02 02:42:10;;;;;;;548.70;523.53;;;0.70;99.90;;;;;;5036173;28;20484;-81
2022/04/02 02:44:36;;;;;;;561.03;535.10;;;0.50;99.90;;;;;;5035022;28;20459;-80
2022/04/02 02:47:06;;;;;;;549.27;524.33;;;0.70;99.90;;;;;;5036105;28;20463;-81
2022/04/02 02:49:32;;;;;;;503.77;483.53;;;0.70;99.90;;;;;;5035456;28;20466;-80
2022/04/02 02:51:59;;;;;;;538.27;514.47;;;0.70;99.90;;;;;;5036047;28;20464;-80
2022/04/02 02:54:26;;;;;;;544.67;520.23;;;1.00;99.90;;;;;;5035950;28;20463;-80
2022/04/02 02:56:53;;;;;;;466.73;448.97;;;0.70;99.90;;;;;;5036031;28;20506;-80
2022/04/02 02:59:20;;;;;;;439.63;423.00;;;0.80;99.90;;;;;;5034937;28;20456;-81
2022/04/02 03:01:47;;;;;;;445.17;428.57;;;0.80;99.90;;;;;;5035723;28;20480;-80
2022/04/02 03:04:15;;;;;;;408.60;394.10;;;0.70;99.90;;;;;;5035193;28;20483;-80
2022/04/02 03:06:42;;;;;;;317.07;306.53;;;0.70;99.90;;;;;;5035752;28;20197;-80
2022/04/02 03:09:08;;;;;;;182.63;176.43;;;0.70;99.90;;;;;;5034877;28;20533;-81
2022/04/02 03:11:35;;;;;;;134.00;129.07;;;0.70;99.90;;;;;;5035158;28;20464;-80
2022/04/02 03:14:02;;;;;;;134.17;129.07;;;0.60;99.90;;;;;;5035030;28;20503;-80
2022/04/02 03:16:29;;;;;;;93.97;90.38;;;0.60;99.90;;;;;;5034929;28;20452;-80
2022/04/02 03:18:56;;;;;;;105.60;101.50;;;0.70;99.90;;;;;;5033129;28;20202;-79
2022/04/02 03:21:24;;;;;;;56.03;53.80;;;0.60;99.90;;;;;;5034318;28;20461;-80
2022/04/02 03:23:51;;;;;;;64.10;61.40;;;0.80;99.90;;;;;;5034828;28;20472;-80
2022/04/02 03:26:18;;;;;;;41.30;39.37;;;0.70;99.90;;;;;;5035027;28;20837;-80
2022/04/02 03:28:46;;;;;;;58.07;55.17;;;0.60;99.90;;;;;;5034465;28;20463;-80
2022/04/02 03:31:12;;;;;;;43.53;41.30;;;0.60;99.90;;;;;;5036507;28;20480;-78
2022/04/02 03:33:39;;;;;;;36.17;34.43;;;0.80;99.90;;;;;;5039379;28;20475;-78
2022/04/02 03:36:06;;;;;;;59.00;56.23;;;0.80;99.90;;;;;;5038984;28;20452;-79
2022/04/02 03:38:34;;;;;;;28.53;26.83;;;0.70;99.90;;;;;;5037888;28;20456;-79
2022/04/02 03:41:02;;;;;;;67.40;64.73;;;0.70;99.90;;;;;;5034897;28;20508;-80
2022/04/02 03:43:28;;;;;;;50.93;48.43;;;0.80;99.90;;;;;;5034334;28;20919;-80
2022/04/02 03:47:07;;;;;;;62.87;60.40;;;0.80;99.90;;;;;;5034348;28;20452;-80
2022/04/02 03:48:42;;;;;;;30.43;28.73;;;0.80;99.90;;;;;;5033326;28;21052;-81
2022/04/02 03:51:09;;;;;;;41.77;39.97;;;0.80;99.90;;;;;;5034125;28;20815;-79
2022/04/02 03:53:37;;;;;;;33.33;31.77;;;0.90;99.90;;;;;;5034116;28;20883;-79
2022/04/02 03:56:06;;;;;;;21.93;20.73;;;1.00;99.90;;;;;;5033689;28;20456;-79
2022/04/02 03:58:33;;;;;;;10.93;10.13;;;0.90;99.90;;;;;;5033299;28;20452;-80
2022/04/02 04:01:00;;;;;;;18.50;17.40;;;1.10;99.90;;;;;;5033767;28;20460;-80
2022/04/02 04:03:27;;;;;;;19.37;18.33;;;1.00;99.90;;;;;;5033476;28;20855;-79
2022/04/02 04:05:53;;;;;;;9.93;8.93;;;1.10;99.90;;;;;;5033736;28;20461;-80
2022/04/02 04:08:20;;;;;;;19.00;17.87;;;1.10;99.90;;;;;;5032455;28;20953;-80
2022/04/02 04:10:49;;;;;;;13.73;12.83;;;1.10;99.90;;;;;;5033433;28;20456;-79
2022/04/02 04:13:16;;;;;;;13.37;12.03;;;1.10;99.90;;;;;;5033218;28;20477;-80
2022/04/02 04:15:42;;;;;;;13.77;12.73;;;1.20;99.90;;;;;;5032227;28;20827;-79
2022/04/02 04:18:09;;;;;;;8.87;8.17;;;1.30;99.90;;;;;;5032441;28;20915;-77
2022/04/02 04:20:36;;;;;;;11.43;9.50;;;1.20;99.90;;;;;;5032944;28;20828;-79
2022/04/02 04:23:03;;;;;;;10.03;6.83;;;1.20;99.90;;;;;;5032888;28;20472;-80
2022/04/02 04:25:29;;;;;;;6.83;6.13;;;1.30;99.60;;;;;;5033214;28;20464;-79
2022/04/02 04:28:01;;;;;;;6.70;5.00;;;1.20;99.90;;;;;;5032843;28;20463;-80
2022/04/02 04:30:28;;;;;;;7.50;6.50;;;1.20;96.70;;;;;;5032134;28;20463;-79
2022/04/02 04:32:55;;;;;;;7.77;5.33;;;1.20;99.90;;;;;;5032976;28;20479;-79
2022/04/02 04:35:22;;;;;;;6.47;5.88;;;1.10;98.80;;;;;;5032872;28;20455;-79
2022/04/02 04:37:49;;;;;;;6.27;5.20;;;1.30;96.10;;;;;;5032931;28;20206;-81
2022/04/02 04:40:16;;;;;;;5.93;3.90;;;1.20;96.80;;;;;;5032278;28;20456;-80
2022/04/02 04:42:43;;;;;;;5.00;3.87;;;1.20;94.70;;;;;;5057065;23;20504;-82
2022/04/02 04:45:11;;;;;;;7.03;4.70;;;1.20;92.20;;;;;;5037672;28;20451;-81
2022/04/02 04:47:38;;;;;;;8.63;4.23;;;1.30;94.20;;;;;;5037422;28;20478;-81
2022/04/02 04:50:07;;;;;;;6.05;3.15;;;1.20;91.80;;;;;;5036862;28;20456;-82
2022/04/02 04:52:34;;;;;;;4.20;3.60;;;1.40;90.70;;;;;;5037330;28;20213;-81
2022/04/02 04:55:01;;;;;;;7.20;4.80;;;1.30;88.40;;;;;;5037731;28;20479;-82
2022/04/02 04:57:28;;;;;;;7.50;4.03;;;1.40;92.70;;;;;;5038425;28;20510;-81
2022/04/02 04:59:55;;;;;;;7.60;2.93;;;1.30;91.20;;;;;;5037532;28;20456;-81
2022/04/02 05:02:23;;;;;;;6.93;4.30;;;1.30;88.80;;;;;;5037781;28;20484;-82
2022/04/02 05:04:50;;;;;;;9.00;4.30;;;1.40;87.80;;;;;;5038060;28;20323;-82
2022/04/02 05:07:18;;;;;;;9.30;3.70;;;1.20;91.50;;;;;;5037379;28;20492;-81
2022/04/02 05:09:45;;;;;;;10.83;3.90;;;1.20;91.00;;;;;;5036482;28;20459;-81
2022/04/02 05:12:12;;;;;;;6.13;4.00;;;1.20;87.10;;;;;;5035395;28;20452;-82
2022/04/02 05:14:39;;;;;;;6.60;3.60;;;1.30;81.00;;;;;;5037930;28;20449;-82
2022/04/02 05:17:06;;;;;;;6.57;3.50;;;1.50;79.70;;;;;;5037511;28;20456;-82
2022/04/02 05:19:35;;;;;;;7.30;3.90;;;1.40;80.80;;;;;;5037418;28;20453;-82
2022/04/02 05:22:01;;;;;;;4.50;2.90;;;1.30;80.60;;;;;;5037845;28;20539;-81
2022/04/02 05:24:28;;;;;;;9.03;3.80;;;1.30;84.30;;;;;;5037470;28;20452;-82
2022/04/02 05:26:55;;;;;;;8.63;3.83;;;1.30;81.50;;;;;;5040473;28;20463;-81
2022/04/02 05:29:22;;;;;;;6.97;2.70;;;1.30;78.60;;;;;;5043327;28;20447;-82
2022/04/02 05:31:49;;;;;;;7.90;4.60;;;1.40;75.50;;;;;;5042679;28;20456;-82
2022/04/02 05:34:15;;;;;;;6.70;3.90;;;1.40;78.80;;;;;;5044346;28;20507;-83
2022/04/02 05:36:44;;;;;;;7.50;3.73;;;1.40;80.50;;;;;;5044036;28;20463;-82
2022/04/02 05:39:10;;;;;;;9.13;3.70;;;1.40;73.60;;;;;;5044521;28;20458;-82
2022/04/02 05:41:37;;;;;;;5.80;2.90;;;1.40;72.90;;;;;;5038052;28;20463;-81
2022/04/02 05:44:04;;;;;;;5.40;3.70;;;1.50;75.50;;;;;;5039268;28;20491;-81
2022/04/02 05:46:31;;;;;;;8.47;4.37;;;1.40;75.60;;;;;;5039373;28;20543;-81
2022/04/02 05:48:59;;;;;;;7.10;3.85;;;1.50;73.60;;;;;;5037707;28;20458;-81
2022/04/02 05:51:25;;;;;;;6.70;3.20;;;1.50;76.00;;;;;;5040921;28;20204;-81
2022/04/02 05:53:53;;;;;;;6.90;3.83;;;1.60;70.00;;;;;;5039663;28;20507;-81
2022/04/02 05:56:22;;;;;;;18.37;3.77;;;1.60;70.30;;;;;;5038636;28;20455;-80
2022/04/02 05:58:49;;;;;;;5.60;3.13;;;1.50;70.70;;;;;;5038990;28;20886;-81
2022/04/02 06:01:16;;;;;;;8.60;3.77;;;1.60;68.20;;;;;;5038430;28;20459;-80
2022/04/02 06:03:43;;;;;;;6.97;3.63;;;1.60;68.70;;;;;;5039055;28;20480;-81
2022/04/02 06:06:10;;;;;;;6.90;4.60;;;1.60;69.60;;;;;;5038989;28;20462;-80
2022/04/02 06:08:37;;;;;;;4.60;2.77;;;1.60;69.90;;;;;;5037190;28;20857;-81
2022/04/02 06:11:06;;;;;;;5.10;3.40;;;1.60;68.40;;;;;;5038797;28;20486;-81
2022/04/02 06:13:32;;;;;;;11.40;3.60;;;1.70;68.90;;;;;;5036885;28;20471;-81
2022/04/02 06:15:59;;;;;;;6.20;3.47;;;1.60;69.70;;;;;;5037984;28;20462;-81
2022/04/02 06:18:26;;;;;;;5.10;3.20;;;1.70;69.50;;;;;;5038099;28;20463;-81
2022/04/02 06:20:53;;;;;;;6.17;3.13;;;1.60;67.00;;;;;;5037635;28;20452;-82
2022/04/02 06:23:20;;;;;;;6.30;4.00;;;1.70;67.50;;;;;;5039799;28;20488;-81
2022/04/02 06:25:48;;;;;;;8.57;3.90;;;1.70;68.70;;;;;;5038860;28;20459;-81
2022/04/02 06:28:17;;;;;;;6.53;3.73;;;1.80;68.00;;;;;;5036469;28;20510;-81
2022/04/02 06:30:44;;;;;;;4.70;2.50;;;1.90;71.10;;;;;;5039145;28;20812;-80
2022/04/02 06:33:10;;;;;;;6.53;3.57;;;1.80;68.60;;;;;;5038880;28;20815;-81
2022/04/02 06:35:37;;;;;;;7.70;4.10;;;1.80;67.90;;;;;;5039484;28;20458;-81
2022/04/02 06:38:04;;;;;;;5.30;2.93;;;1.80;65.60;;;;;;5037912;28;20463;-81
2022/04/02 06:40:31;;;;;;;5.27;2.47;;;1.90;65.60;;;;;;5035136;28;20830;-81
2022/04/02 06:42:58;;;;;;;7.40;4.83;;;1.80;65.80;;;;;;5036722;28;20491;-81
2022/04/02 06:45:26;;;;;;;11.40;4.43;;;1.90;67.20;;;;;;5036553;28;20457;-81
2022/04/02 06:47:53;;;;;;;6.40;3.77;;;1.90;69.10;;;;;;5035609;28;20454;-82
2022/04/02 06:50:20;;;;;;;6.20;3.80;;;1.90;66.10;;;;;;5035296;28;20448;-82
2022/04/02 06:52:47;;;;;;;5.77;2.83;;;2.00;66.40;;;;;;5035841;28;20491;-82
2022/04/02 06:55:15;;;;;;;4.93;3.07;;;2.00;64.70;;;;;;5035729;28;20941;-81
2022/04/02 06:57:43;;;;;;;6.53;3.53;;;2.00;63.40;;;;;;5032442;28;20991;-81
2022/04/02 07:00:11;;;;;;;6.13;3.40;;;2.10;64.80;;;;;;5031411;28;20546;-81
2022/04/02 07:02:39;;;;;;;5.50;3.50;;;2.00;62.80;;;;;;5034230;28;20504;-81
2022/04/02 07:05:06;;;;;;;5.50;3.03;;;2.00;63.70;;;;;;5034112;28;20470;-81
2022/04/02 07:07:33;;;;;;;5.20;3.43;;;2.20;61.80;;;;;;5034287;28;20478;-81
2022/04/02 07:10:00;;;;;;;7.13;3.67;;;2.20;61.60;;;;;;5033600;28;20542;-81
2022/04/02 07:12:27;;;;;;;7.73;3.70;;;2.10;63.40;;;;;;5032533;28;20486;-81
2022/04/02 07:14:55;;;;;;;6.13;2.83;;;2.20;63.20;;;;;;5034970;28;20448;-81
2022/04/02 07:17:21;;;;;;;5.70;2.97;;;2.30;61.40;;;;;;5035061;28;20474;-82
2022/04/02 07:19:51;;;;;;;9.57;3.13;;;2.30;60.70;;;;;;5034847;28;20957;-81
2022/04/02 07:22:18;;;;;;;5.40;2.90;;;2.40;57.50;;;;;;5036047;28;20463;-80
2022/04/02 07:24:46;;;;;;;6.23;3.10;;;2.30;56.80;;;;;;5034890;28;20476;-78
2022/04/02 07:27:12;;;;;;;5.80;3.40;;;2.50;57.50;;;;;;5035789;28;20456;-81
2022/04/02 07:29:40;;;;;;;7.47;3.88;;;2.40;54.80;;;;;;5033948;28;20457;-81
2022/04/02 07:32:09;;;;;;;6.73;3.63;;;2.60;55.60;;;;;;5041139;28;20201;-80
2022/04/02 07:34:36;;;;;;;5.70;2.80;;;2.60;58.20;;;;;;5038396;28;20508;-83
2022/04/02 07:37:12;;;;;;;6.77;3.23;;;2.70;53.90;;;;;;5039762;28;20448;-80
2022/04/02 07:39:48;;;;;;;9.43;3.70;;;2.70;52.90;;;;;;5039157;28;20448;-81
2022/04/02 07:42:22;;;;;;;6.20;3.63;;;2.80;55.70;;;;;;5036487;28;20452;-81
2022/04/02 07:45:02;;;;;;;8.13;3.67;;;2.80;51.40;;;;;;5038142;28;20472;-82
2022/04/02 07:47:31;;;;;;;6.47;4.13;;;3.00;52.50;;;;;;5040494;28;20452;-82
2022/04/02 07:50:02;;;;;;;4.60;2.43;;;3.10;54.10;;;;;;5037693;28;20452;-81
2022/04/02 07:52:30;;;;;;;6.73;3.30;;;3.00;50.00;;;;;;5038594;28;20475;-82
2022/04/02 07:54:59;;;;;;;5.80;3.40;;;3.10;49.70;;;;;;5037779;28;20452;-81
2022/04/02 07:57:33;;;;;;;7.00;3.90;;;3.00;50.10;;;;;;5039612;28;20835;-82
2022/04/02 08:00:03;;;;;;;7.40;3.87;;;3.10;52.20;;;;;;5039361;28;20830;-82
2022/04/02 08:02:38;;;;;;;6.57;3.43;;;3.30;52.80;;;;;;5041330;28;20512;-83
2022/04/02 08:05:07;;;;;;;5.00;2.80;;;3.30;50.00;;;;;;5041561;28;20480;-81
2022/04/02 08:07:37;;;;;;;7.10;3.43;;;3.30;48.70;;;;;;5041936;28;20863;-81
2022/04/02 08:10:06;;;;;;;5.80;3.22;;;3.20;48.30;;;;;;5041820;28;20456;-82
2022/04/02 08:12:35;;;;;;;11.00;4.03;;;3.20;46.90;;;;;;5038364;28;20287;-86
2022/04/02 08:15:03;;;;;;;7.70;4.13;;;3.20;46.50;;;;;;5041726;28;20458;-85
2022/04/02 08:17:32;;;;;;;7.23;3.80;;;3.50;49.90;;;;;;5037742;28;20471;-83
2022/04/02 08:19:59;;;;;;;8.17;4.13;;;3.30;43.60;;;;;;5035710;28;20809;-82
2022/04/02 08:22:27;;;;;;;5.27;3.07;;;3.50;49.60;;;;;;5035271;28;20479;-82
2022/04/02 08:24:55;;;;;;;7.67;3.30;;;3.60;46.60;;;;;;5036035;28;20475;-83
2022/04/02 08:27:31;;;;;;;6.80;3.70;;;3.60;45.50;;;;;;5035868;28;20457;-80
2022/04/02 08:30:05;;;;;;;9.23;3.70;;;3.80;48.70;;;;;;5035549;28;20456;-82
2022/04/02 08:32:51;;;;;;;9.33;4.10;;;3.70;45.20;;;;;;5032184;28;20499;-82
2022/04/02 08:35:25;;;;;;;8.53;4.80;;;4.00;48.10;;;;;;5035819;28;20833;-81
2022/04/02 08:38:03;;;;;;;6.67;3.67;;;4.00;44.90;;;;;;5034318;28;20452;-81
2022/04/02 08:41:10;;;;;;;7.70;3.60;;;3.80;43.40;;;;;;5034132;28;20464;-80
2022/04/02 08:44:07;;;;;;;7.60;4.00;;;4.10;46.50;;;;;;5033123;28;20483;-81
2022/04/02 08:46:36;;;;;;;6.70;3.17;;;4.50;46.40;;;;;;5031999;28;20845;-82
2022/04/02 08:49:22;;;;;;;9.30;3.73;;;4.50;42.60;;;;;;5029870;28;20448;-81
2022/04/02 08:51:57;;;;;;;7.00;3.73;;;4.60;42.40;;;;;;5034517;28;20456;-81
2022/04/02 08:54:26;;;;;;;7.50;3.57;;;4.70;40.30;;;;;;5034059;28;20467;-81
2022/04/02 08:57:00;;;;;;;7.17;4.67;;;4.70;41.20;;;;;;5034799;28;20452;-82
2022/04/02 08:59:37;;;;;;;6.63;3.73;;;4.80;42.80;;;;;;5032579;28;20452;-81
2022/04/02 09:02:38;;;;;;;6.67;3.27;;;5.10;42.60;;;;;;5036328;28;20878;-82
2022/04/02 09:05:22;;;;;;;10.63;4.77;;;4.70;35.80;;;;;;5025276;28;20475;-83
2022/04/02 09:08:30;;;;;;;7.70;3.27;;;4.90;42.50;;;;;;5034700;28;20452;-83
2022/04/02 09:11:28;;;;;;;9.67;5.20;;;4.80;39.10;;;;;;5035181;28;20448;-83
2022/04/02 09:14:27;;;;;;;7.53;3.80;;;5.00;36.70;;;;;;4974689;28;20478;-82
2022/04/02 09:17:03;;;;;;;8.63;3.40;;;5.20;38.60;;;;;;5036218;28;20448;-82
2022/04/02 09:19:53;;;;;;;9.43;4.63;;;5.10;35.00;;;;;;5036637;28;20452;-81
2022/04/02 09:22:47;;;;;;;21.03;5.27;;;5.40;37.80;;;;;;5036277;28;20456;-82
2022/04/02 09:25:47;;;;;;;7.80;4.50;;;5.30;38.00;;;;;;5035665;28;20484;-83
2022/04/02 09:28:34;;;;;;;6.47;3.00;;;5.20;36.10;;;;;;5030268;28;20829;-83
2022/04/02 09:31:37;;;;;;;10.47;4.97;;;5.70;37.40;;;;;;5034924;28;20835;-83
2022/04/02 09:34:39;;;;;;;9.27;4.77;;;5.50;33.60;;;;;;5035185;28;20490;-82
2022/04/02 09:37:14;;;;;;;7.57;3.30;;;5.40;33.10;;;;;;5035774;28;20527;-83
2022/04/02 09:39:59;;;;;;;8.43;4.30;;;5.30;32.50;;;;;;5035861;28;20458;-83
2022/04/02 09:42:44;;;;;;;6.70;3.80;;;4.90;31.60;;;;;;5037615;28;20479;-83
2022/04/02 09:45:13;;;;;;;7.70;3.53;;;5.30;34.10;;;;;;5038491;28;20855;-83
2022/04/02 09:48:08;;;;;;;7.57;3.50;;;5.10;33.90;;;;;;5037679;28;20456;-83
2022/04/02 09:50:37;;;;;;;7.83;3.20;;;5.20;32.80;;;;;;5033942;28;20460;-82
2022/04/02 09:53:14;;;;;;;8.13;3.63;;;5.10;32.90;;;;;;5034568;28;20468;-82
2022/04/02 09:55:47;;;;;;;7.50;4.80;;;5.10;32.90;;;;;;5035517;28;20452;-82
2022/04/02 09:58:49;;;;;;;8.40;4.80;;;5.10;33.80;;;;;;5035992;28;20455;-82
2022/04/02 10:01:28;;;;;;;10.57;6.03;;;5.00;31.70;;;;;;5034477;28;20459;-81
2022/04/02 10:03:59;;;;;;;14.00;4.47;;;5.30;33.70;;;;;;5015507;28;20495;-81
2022/04/02 10:06:35;;;;;;;7.60;3.63;;;5.50;31.20;;;;;;5030006;28;20456;-81
2022/04/02 10:09:06;;;;;;;8.37;4.83;;;5.40;29.10;;;;;;5032552;28;20543;-81
2022/04/02 10:11:35;;;;;;;6.57;3.53;;;5.30;29.90;;;;;;5034640;28;20475;-81
2022/04/02 10:14:04;;;;;;;10.13;4.63;;;5.20;31.70;;;;;;5036575;28;20996;-81
2022/04/02 10:16:32;;;;;;;6.90;3.83;;;5.50;33.50;;;;;;5037277;28;20451;-80
2022/04/02 10:19:01;;;;;;;8.20;5.10;;;5.20;32.00;;;;;;5037590;28;20514;-81
2022/04/02 10:21:30;;;;;;;7.13;3.97;;;4.90;30.40;;;;;;5037527;28;20945;-80
2022/04/02 10:24:12;;;;;;;9.37;5.90;;;5.20;31.30;;;;;;5037466;28;20479;-81
2022/04/02 10:26:41;;;;;;;9.37;3.63;;;5.00;29.60;;;;;;5038201;28;20456;-81
2022/04/02 10:29:13;;;;;;;9.00;4.77;;;5.10;31.80;;;;;;5037588;28;20456;-79
2022/04/02 10:31:48;;;;;;;7.67;4.23;;;5.40;30.60;;;;;;5036668;28;20448;-80
2022/04/02 10:34:34;;;;;;;7.93;4.23;;;5.60;28.10;;;;;;5036966;28;20467;-80
2022/04/02 10:37:09;;;;;;;8.47;3.40;;;5.60;27.00;;;;;;5021704;28;20459;-81
2022/04/02 10:39:41;;;;;;;8.43;4.10;;;5.60;28.40;;;;;;5027125;28;20825;-79
2022/04/02 10:42:11;;;;;;;10.80;5.33;;;5.70;28.80;;;;;;5036130;28;20452;-80
2022/04/02 10:44:45;;;;;;;9.30;4.97;;;5.70;29.50;;;;;;5056967;23;20484;-81
2022/04/02 10:47:13;;;;;;;9.00;4.73;;;6.10;31.00;;;;;;5038221;28;20447;-80
2022/04/02 10:49:41;;;;;;;7.03;3.80;;;6.00;30.20;;;;;;5038510;28;20448;-80
2022/04/02 10:52:13;;;;;;;7.57;3.57;;;5.80;26.00;;;;;;5038684;28;20823;-79
2022/04/02 10:54:42;;;;;;;8.10;4.07;;;5.60;28.00;;;;;;5044503;28;20475;-80
2022/04/02 10:57:09;;;;;;;7.37;3.67;;;5.60;26.50;;;;;;5038638;28;20527;-81
2022/04/02 10:59:38;;;;;;;11.07;5.10;;;5.50;25.90;;;;;;5037901;28;20459;-81
2022/04/02 11:02:25;;;;;;;7.60;4.00;;;5.90;25.10;;;;;;5038911;28;20441;-80
2022/04/02 11:04:59;;;;;;;8.00;4.40;;;6.50;25.70;;;;;;5037082;28;20479;-81
2022/04/02 11:07:34;;;;;;;5.40;2.83;;;6.80;25.60;;;;;;5037204;28;20447;-82
2022/04/02 11:10:01;;;;;;;9.37;4.97;;;6.70;24.80;;;;;;5033249;28;20476;-81
2022/04/02 11:12:30;;;;;;;12.67;4.13;;;7.30;24.30;;;;;;5038806;28;20455;-82
2022/04/02 11:15:08;;;;;;;9.87;4.50;;;7.30;21.30;;;;;;5038686;28;20460;-81
2022/04/02 11:17:37;;;;;;;7.73;3.57;;;7.10;22.80;;;;;;5025079;28;21014;-82
2022/04/02 11:20:10;;;;;;;7.13;3.93;;;7.20;18.70;;;;;;5037212;28;20535;-81
2022/04/02 11:22:50;;;;;;;7.73;3.90;;;6.90;20.60;;;;;;5037639;28;20459;-80
2022/04/02 11:25:22;;;;;;;8.67;4.60;;;7.40;18.80;;;;;;5033841;28;20487;-80
2022/04/02 11:27:55;;;;;;;9.13;3.70;;;7.70;20.70;;;;;;5036718;28;20535;-80
2022/04/02 11:30:27;;;;;;;7.63;3.37;;;7.00;21.20;;;;;;5033435;28;20464;-80
2022/04/02 11:33:05;;;;;;;9.70;4.20;;;6.20;28.50;;;;;;5033290;28;21088;-81
2022/04/02 11:35:38;;;;;;;8.43;5.53;;;5.40;35.10;;;;;;5037073;28;20868;-80
2022/04/02 11:38:14;;;;;;;8.03;4.30;;;5.20;36.20;;;;;;5036991;28;20452;-81
2022/04/02 11:40:46;;;;;;;7.93;3.47;;;4.80;37.20;;;;;;5037296;28;20452;-80
2022/04/02 11:43:18;;;;;;;7.07;4.10;;;4.90;38.60;;;;;;5036247;28;20484;-80
2022/04/02 11:45:47;;;;;;;8.27;3.70;;;5.20;40.60;;;;;;5036078;28;20473;-80
2022/04/02 11:48:16;;;;;;;7.50;4.20;;;5.30;34.00;;;;;;5039106;28;20448;-81
2022/04/02 11:50:44;;;;;;;6.50;4.00;;;5.30;33.10;;;;;;5039211;28;20456;-82
2022/04/02 11:53:13;;;;;;;8.60;5.40;;;5.70;34.00;;;;;;5039581;28;20472;-81
2022/04/02 11:55:41;;;;;;;10.10;4.37;;;5.70;29.70;;;;;;5037973;28;20444;-81
2022/04/02 11:58:09;;;;;;;20.70;5.73;;;6.00;29.40;;;;;;5038071;28;20499;-81
2022/04/02 12:00:38;;;;;;;6.60;3.30;;;6.20;31.00;;;;;;5038126;28;20448;-80
2022/04/02 12:03:08;;;;;;;6.87;3.70;;;6.20;28.90;;;;;;5037692;28;20472;-80
2022/04/02 12:05:43;;;;;;;6.37;3.70;;;6.30;25.30;;;;;;5038030;28;20468;-81
2022/04/02 12:08:26;;;;;;;7.63;3.87;;;6.60;25.60;;;;;;5016983;28;20819;-81
2022/04/02 12:10:53;;;;;;;8.97;4.97;;;6.50;26.20;;;;;;5029731;28;20448;-80
2022/04/02 12:13:21;;;;;;;13.40;5.90;;;6.90;25.70;;;;;;5037318;28;20920;-79
2022/04/02 12:16:02;;;;;;;8.27;5.50;;;7.10;25.80;;;;;;5035913;28;21003;-82
2022/04/02 12:18:30;;;;;;;9.07;4.40;;;7.20;27.30;;;;;;5035542;28;20465;-80
2022/04/02 12:21:04;;;;;;;14.53;5.60;;;6.60;27.10;;;;;;5035941;28;20474;-80
2022/04/02 12:23:33;;;;;;;11.67;4.80;;;5.80;32.60;;;;;;5035910;28;20483;-80
2022/04/02 12:26:01;;;;;;;9.37;6.07;;;5.10;41.00;;;;;;5034765;28;20526;-80
2022/04/02 12:28:28;;;;;;;7.13;4.50;;;4.40;78.20;;;;;;5033544;28;20820;-80
2022/04/02 12:31:04;;;;;;;8.67;5.27;;;4.30;57.40;;;;;;5034404;28;20459;-80
2022/04/02 12:33:31;;;;;;;7.00;4.70;;;4.10;62.20;;;;;;5033935;28;20467;-80
2022/04/02 12:35:59;;;;;;;8.70;4.30;;;4.30;57.10;;;;;;5033035;28;20460;-80
2022/04/02 12:38:29;;;;;;;7.50;4.33;;;4.50;52.70;;;;;;5034468;28;20479;-79
2022/04/02 12:40:58;;;;;;;9.05;5.75;;;5.10;50.10;;;;;;5031152;28;20461;-80
2022/04/02 12:43:28;;;;;;;8.17;5.27;;;5.20;46.80;;;;;;5033905;28;20426;-80
2022/04/02 12:45:55;;;;;;;8.33;4.83;;;5.50;48.20;;;;;;5033738;28;20849;-79
2022/04/02 12:48:25;;;;;;;5.93;3.00;;;5.40;44.60;;;;;;5029738;28;20467;-79
2022/04/02 12:50:55;;;;;;;9.00;5.13;;;5.80;45.80;;;;;;5050365;28;20453;-79
2022/04/02 12:53:32;;;;;;;9.93;6.13;;;6.50;42.10;;;;;;5035588;28;20465;-80
2022/04/02 12:56:02;;;;;;;8.30;5.97;;;6.70;40.00;;;;;;5033020;28;20486;-79
2022/04/02 12:58:32;;;;;;;8.60;5.90;;;6.90;37.70;;;;;;5034159;28;20897;-79
2022/04/02 13:01:12;;;;;;;6.60;3.37;;;6.90;38.50;;;;;;5033562;28;20453;-79
2022/04/02 13:03:44;;;;;;;8.97;4.37;;;7.20;35.70;;;;;;5033742;28;20476;-79
2022/04/02 13:06:20;;;;;;;12.90;3.77;;;6.90;33.20;;;;;;5033742;28;20479;-80